LGL8246 LFMN-LIRF
Flight info
| Callsign | LGL8246 |
|---|---|
| Flight time | 0h 51m |
| Altitude | 29000 |
| Route | SODRI DCT RAPUR DCT RATAP DCT BTA/N0450F280 DCT MOULE DCT XOPTA DCT ELB DCT ELKAP |
| Aircraft | B738/M-SDE2E3FGHIRWXY/LB1 |
Departure
| Time | 2026-05-07 20:52 |
|---|---|
| Airport | Nice-Côte d'Azur Airport (LFMN) |
Arrival
| Time | 2026-05-07 21:44 |
|---|---|
| Airport | Rome–Fiumicino Leonardo da Vinci International Airport (LIRF) |
| Time | Latitude | Longitude | Altitude | Speed | Heading |
|---|---|---|---|---|---|
| 2026-05-07 20:04 | 43.66390 | 7.20920 | 21 ft | 0 kts | 3° |
| 2026-05-07 20:44 | 43.66376 | 7.20919 | 23 ft | 3 kts | 3° |
| 2026-05-07 20:44 | 43.66355 | 7.20917 | 23 ft | 3 kts | 3° |
| 2026-05-07 20:44 | 43.66335 | 7.20915 | 21 ft | 3 kts | 28° |
| 2026-05-07 20:44 | 43.66320 | 7.20896 | 22 ft | 3 kts | 73° |
| 2026-05-07 20:45 | 43.66319 | 7.20892 | 22 ft | 0 kts | 79° |
| 2026-05-07 20:47 | 43.66321 | 7.20943 | 21 ft | 11 kts | 101° |
| 2026-05-07 20:47 | 43.66262 | 7.21001 | 21 ft | 11 kts | 169° |
| 2026-05-07 20:48 | 43.66187 | 7.21020 | 21 ft | 11 kts | 170° |
| 2026-05-07 20:48 | 43.66114 | 7.21037 | 21 ft | 10 kts | 171° |
| 2026-05-07 20:48 | 43.66042 | 7.21054 | 21 ft | 11 kts | 170° |
| 2026-05-07 20:48 | 43.65957 | 7.21088 | 21 ft | 14 kts | 163° |
| 2026-05-07 20:49 | 43.65870 | 7.21033 | 21 ft | 15 kts | 223° |
| 2026-05-07 20:49 | 43.65797 | 7.20927 | 21 ft | 15 kts | 226° |
| 2026-05-07 20:49 | 43.65708 | 7.20892 | 21 ft | 14 kts | 169° |
| 2026-05-07 20:49 | 43.65609 | 7.20913 | 24 ft | 15 kts | 172° |
| 2026-05-07 20:50 | 43.65485 | 7.20938 | 22 ft | 21 kts | 171° |
| 2026-05-07 20:50 | 43.65340 | 7.20936 | 22 ft | 22 kts | 212° |
| 2026-05-07 20:50 | 43.65232 | 7.20795 | 21 ft | 21 kts | 225° |
| 2026-05-07 20:50 | 43.65129 | 7.20652 | 21 ft | 21 kts | 225° |
| 2026-05-07 20:51 | 43.65017 | 7.20498 | 21 ft | 24 kts | 224° |
| 2026-05-07 20:51 | 43.64907 | 7.20347 | 21 ft | 16 kts | 224° |
| 2026-05-07 20:51 | 43.64820 | 7.20276 | 21 ft | 15 kts | 173° |
| 2026-05-07 20:51 | 43.64777 | 7.20385 | 23 ft | 18 kts | 62° |
| 2026-05-07 20:52 | 43.64936 | 7.20612 | 21 ft | 62 kts | 45° |
| 2026-05-07 20:52 | 43.65415 | 7.21269 | 24 ft | 130 kts | 45° |
| 2026-05-07 20:52 | 43.66149 | 7.22344 | 257 ft | 163 kts | 51° |
| 2026-05-07 20:52 | 43.66855 | 7.23533 | 1076 ft | 163 kts | 62° |
| 2026-05-07 20:53 | 43.67090 | 7.25135 | 1324 ft | 188 kts | 106° |
| 2026-05-07 20:53 | 43.66299 | 7.26612 | 1684 ft | 206 kts | 147° |
| 2026-05-07 20:53 | 43.65041 | 7.27668 | 2133 ft | 218 kts | 144° |
| 2026-05-07 20:53 | 43.63856 | 7.29063 | 2841 ft | 220 kts | 137° |
| 2026-05-07 20:54 | 43.62726 | 7.30524 | 3494 ft | 227 kts | 137° |
| 2026-05-07 20:54 | 43.61545 | 7.32031 | 4099 ft | 234 kts | 139° |
| 2026-05-07 20:54 | 43.60355 | 7.33551 | 4859 ft | 235 kts | 139° |
| 2026-05-07 20:54 | 43.59019 | 7.34781 | 5435 ft | 237 kts | 163° |
| 2026-05-07 20:55 | 43.57464 | 7.35451 | 6223 ft | 234 kts | 163° |
| 2026-05-07 20:55 | 43.55920 | 7.36194 | 6903 ft | 237 kts | 162° |
| 2026-05-07 20:55 | 43.54373 | 7.36987 | 7632 ft | 237 kts | 161° |
| 2026-05-07 20:55 | 43.52818 | 7.37789 | 8356 ft | 239 kts | 161° |
| 2026-05-07 20:56 | 43.51262 | 7.38566 | 9147 ft | 239 kts | 162° |
| 2026-05-07 20:56 | 43.49640 | 7.39380 | 9510 ft | 260 kts | 162° |
| 2026-05-07 20:56 | 43.47857 | 7.40273 | 9803 ft | 282 kts | 161° |
| 2026-05-07 20:56 | 43.45989 | 7.41214 | 10423 ft | 290 kts | 162° |
| 2026-05-07 20:57 | 43.44017 | 7.42193 | 10670 ft | 314 kts | 162° |
| 2026-05-07 20:57 | 43.41903 | 7.43250 | 10946 ft | 334 kts | 161° |
| 2026-05-07 20:57 | 43.39645 | 7.44403 | 11105 ft | 357 kts | 161° |
| 2026-05-07 20:57 | 43.37280 | 7.45608 | 11618 ft | 366 kts | 161° |
| 2026-05-07 20:58 | 43.34874 | 7.46832 | 12218 ft | 373 kts | 161° |
| 2026-05-07 20:58 | 43.32418 | 7.48079 | 12880 ft | 377 kts | 162° |
| 2026-05-07 20:58 | 43.29948 | 7.49334 | 13663 ft | 381 kts | 162° |
| 2026-05-07 20:58 | 43.27433 | 7.50588 | 14227 ft | 388 kts | 162° |
| 2026-05-07 20:59 | 43.24870 | 7.51849 | 14855 ft | 392 kts | 162° |
| 2026-05-07 20:59 | 43.22320 | 7.53142 | 15729 ft | 391 kts | 162° |
| 2026-05-07 20:59 | 43.20626 | 7.54001 | 16224 ft | 393 kts | 162° |
| 2026-05-07 20:59 | 43.18040 | 7.55303 | 16784 ft | 400 kts | 162° |
| 2026-05-07 21:00 | 43.15405 | 7.56638 | 17336 ft | 406 kts | 162° |
| 2026-05-07 21:00 | 43.12876 | 7.58390 | 18046 ft | 413 kts | 144° |
| 2026-05-07 21:00 | 43.10912 | 7.61286 | 18686 ft | 421 kts | 125° |
| 2026-05-07 21:00 | 43.09676 | 7.64948 | 19225 ft | 430 kts | 106° |
| 2026-05-07 21:01 | 43.09148 | 7.69004 | 19764 ft | 436 kts | 99° |
| 2026-05-07 21:01 | 43.08713 | 7.73185 | 20267 ft | 441 kts | 100° |
| 2026-05-07 21:01 | 43.08243 | 7.77354 | 20779 ft | 445 kts | 101° |
| 2026-05-07 21:01 | 43.07750 | 7.81494 | 21267 ft | 449 kts | 101° |
| 2026-05-07 21:02 | 43.07258 | 7.85736 | 21768 ft | 454 kts | 101° |
| 2026-05-07 21:02 | 43.06770 | 7.90022 | 22251 ft | 458 kts | 101° |
| 2026-05-07 21:02 | 43.06279 | 7.94348 | 22721 ft | 462 kts | 101° |
| 2026-05-07 21:02 | 43.05782 | 7.98711 | 23176 ft | 467 kts | 101° |
| 2026-05-07 21:03 | 43.05278 | 8.03117 | 23591 ft | 472 kts | 101° |
| 2026-05-07 21:03 | 43.04765 | 8.07565 | 23977 ft | 475 kts | 101° |
| 2026-05-07 21:03 | 43.04246 | 8.12047 | 24378 ft | 478 kts | 101° |
| 2026-05-07 21:03 | 43.03723 | 8.16551 | 24756 ft | 481 kts | 101° |
| 2026-05-07 21:04 | 43.03194 | 8.21087 | 25129 ft | 485 kts | 101° |
| 2026-05-07 21:04 | 43.02660 | 8.25653 | 25488 ft | 488 kts | 101° |
| 2026-05-07 21:04 | 43.02120 | 8.30252 | 25837 ft | 491 kts | 102° |
| 2026-05-07 21:04 | 43.01573 | 8.34867 | 26178 ft | 494 kts | 103° |
| 2026-05-07 21:05 | 43.00653 | 8.39379 | 26455 ft | 492 kts | 118° |
| 2026-05-07 21:05 | 42.99045 | 8.43485 | 26833 ft | 490 kts | 124° |
| 2026-05-07 21:05 | 42.97351 | 8.47539 | 27184 ft | 492 kts | 124° |
| 2026-05-07 21:05 | 42.95666 | 8.51620 | 27489 ft | 496 kts | 123° |
| 2026-05-07 21:06 | 42.93997 | 8.55765 | 27803 ft | 499 kts | 123° |
| 2026-05-07 21:06 | 42.92348 | 8.59943 | 28227 ft | 500 kts | 122° |
| 2026-05-07 21:06 | 42.90709 | 8.64119 | 28731 ft | 498 kts | 122° |
| 2026-05-07 21:06 | 42.89070 | 8.68282 | 29012 ft | 500 kts | 123° |
| 2026-05-07 21:07 | 42.87408 | 8.72482 | 28990 ft | 505 kts | 123° |
| 2026-05-07 21:07 | 42.84045 | 8.80957 | 29020 ft | 512 kts | 123° |
| 2026-05-07 21:08 | 42.80717 | 8.89345 | 28988 ft | 489 kts | 123° |
| 2026-05-07 21:08 | 42.77481 | 8.97447 | 29017 ft | 491 kts | 123° |
| 2026-05-07 21:09 | 42.74172 | 9.05718 | 29018 ft | 503 kts | 123° |
| 2026-05-07 21:09 | 42.70808 | 9.14123 | 29003 ft | 509 kts | 123° |
| 2026-05-07 21:10 | 42.67443 | 9.22533 | 28990 ft | 503 kts | 123° |
| 2026-05-07 21:10 | 42.64147 | 9.30763 | 28995 ft | 495 kts | 124° |
| 2026-05-07 21:11 | 42.60824 | 9.39008 | 29009 ft | 501 kts | 124° |
| 2026-05-07 21:11 | 42.58272 | 9.52815 | 29022 ft | 522 kts | 87° |
| 2026-05-07 21:12 | 42.59835 | 9.62442 | 29025 ft | 523 kts | 76° |
| 2026-05-07 21:12 | 42.61610 | 9.72000 | 29028 ft | 518 kts | 77° |
| 2026-05-07 21:13 | 42.63210 | 9.81476 | 29016 ft | 513 kts | 78° |
| 2026-05-07 21:13 | 42.64821 | 9.90922 | 29015 ft | 513 kts | 78° |
| 2026-05-07 21:14 | 42.66447 | 10.00367 | 29033 ft | 514 kts | 78° |
| 2026-05-07 21:14 | 42.68070 | 10.09838 | 29017 ft | 515 kts | 78° |
| 2026-05-07 21:15 | 42.69683 | 10.19323 | 29020 ft | 516 kts | 78° |
| 2026-05-07 21:15 | 42.71292 | 10.28840 | 29024 ft | 517 kts | 78° |
| 2026-05-07 21:16 | 42.72816 | 10.38393 | 29023 ft | 517 kts | 83° |
| 2026-05-07 21:16 | 42.73117 | 10.43270 | 28699 ft | 521 kts | 93° |
| 2026-05-07 21:16 | 42.72906 | 10.48143 | 28397 ft | 506 kts | 98° |
| 2026-05-07 21:17 | 42.72606 | 10.52859 | 28039 ft | 496 kts | 98° |
| 2026-05-07 21:17 | 42.72375 | 10.57471 | 27818 ft | 483 kts | 97° |
| 2026-05-07 21:17 | 42.72158 | 10.61961 | 27632 ft | 468 kts | 101° |
| 2026-05-07 21:17 | 42.71346 | 10.66129 | 27318 ft | 448 kts | 121° |
| 2026-05-07 21:18 | 42.69831 | 10.69737 | 26945 ft | 434 kts | 129° |
| 2026-05-07 21:18 | 42.68214 | 10.73174 | 26483 ft | 430 kts | 129° |
| 2026-05-07 21:18 | 42.66606 | 10.76579 | 26053 ft | 426 kts | 129° |
| 2026-05-07 21:18 | 42.65037 | 10.79922 | 25631 ft | 423 kts | 129° |
| 2026-05-07 21:19 | 42.63450 | 10.83330 | 25203 ft | 420 kts | 128° |
| 2026-05-07 21:19 | 42.61903 | 10.86674 | 24778 ft | 417 kts | 128° |
| 2026-05-07 21:19 | 42.60372 | 10.89996 | 24363 ft | 414 kts | 128° |
| 2026-05-07 21:19 | 42.58848 | 10.93303 | 23945 ft | 412 kts | 128° |
| 2026-05-07 21:20 | 42.57353 | 10.96545 | 23519 ft | 410 kts | 128° |
| 2026-05-07 21:20 | 42.55846 | 10.99813 | 23015 ft | 408 kts | 128° |
| 2026-05-07 21:20 | 42.54346 | 11.03060 | 22571 ft | 405 kts | 128° |
| 2026-05-07 21:20 | 42.52858 | 11.06280 | 22152 ft | 401 kts | 127° |
| 2026-05-07 21:21 | 42.51382 | 11.09467 | 21733 ft | 398 kts | 127° |
| 2026-05-07 21:21 | 42.49915 | 11.12633 | 21318 ft | 395 kts | 127° |
| 2026-05-07 21:21 | 42.48460 | 11.15770 | 20911 ft | 392 kts | 127° |
| 2026-05-07 21:21 | 42.47013 | 11.18886 | 20498 ft | 389 kts | 127° |
| 2026-05-07 21:22 | 42.45577 | 11.21973 | 20099 ft | 386 kts | 127° |
| 2026-05-07 21:22 | 42.44231 | 11.25114 | 19692 ft | 388 kts | 116° |
| 2026-05-07 21:22 | 42.43599 | 11.28667 | 19403 ft | 388 kts | 101° |
| 2026-05-07 21:22 | 42.43225 | 11.32277 | 18962 ft | 387 kts | 101° |
| 2026-05-07 21:23 | 42.42858 | 11.35882 | 18562 ft | 386 kts | 101° |
| 2026-05-07 21:23 | 42.42480 | 11.39479 | 18113 ft | 385 kts | 101° |
| 2026-05-07 21:23 | 42.42090 | 11.43053 | 17672 ft | 381 kts | 101° |
| 2026-05-07 21:23 | 42.41693 | 11.46602 | 17249 ft | 372 kts | 101° |
| 2026-05-07 21:24 | 42.41309 | 11.49991 | 17108 ft | 356 kts | 101° |
| 2026-05-07 21:24 | 42.40944 | 11.53197 | 16907 ft | 343 kts | 103° |
| 2026-05-07 21:24 | 42.40207 | 11.56194 | 16437 ft | 332 kts | 126° |
| 2026-05-07 21:24 | 42.38716 | 11.58489 | 15984 ft | 320 kts | 147° |
| 2026-05-07 21:25 | 42.36881 | 11.59964 | 15905 ft | 296 kts | 163° |
| 2026-05-07 21:25 | 42.34999 | 11.60886 | 15816 ft | 281 kts | 167° |
| 2026-05-07 21:25 | 42.33177 | 11.61696 | 15628 ft | 272 kts | 167° |
| 2026-05-07 21:25 | 42.31364 | 11.62507 | 15290 ft | 270 kts | 167° |
| 2026-05-07 21:26 | 42.29583 | 11.63320 | 14927 ft | 270 kts | 166° |
| 2026-05-07 21:26 | 42.27831 | 11.64129 | 14589 ft | 269 kts | 166° |
| 2026-05-07 21:26 | 42.26047 | 11.64957 | 14251 ft | 267 kts | 167° |
| 2026-05-07 21:26 | 42.24289 | 11.65730 | 13920 ft | 265 kts | 167° |
| 2026-05-07 21:27 | 42.22534 | 11.66482 | 13555 ft | 264 kts | 167° |
| 2026-05-07 21:27 | 42.20790 | 11.67228 | 13175 ft | 263 kts | 167° |
| 2026-05-07 21:27 | 42.19051 | 11.67972 | 12784 ft | 262 kts | 167° |
| 2026-05-07 21:27 | 42.17318 | 11.68715 | 12409 ft | 261 kts | 167° |
| 2026-05-07 21:28 | 42.15588 | 11.69458 | 12059 ft | 260 kts | 167° |
| 2026-05-07 21:28 | 42.13868 | 11.70197 | 11697 ft | 259 kts | 166° |
| 2026-05-07 21:28 | 42.12155 | 11.70933 | 11346 ft | 258 kts | 166° |
| 2026-05-07 21:28 | 42.10447 | 11.71666 | 11008 ft | 257 kts | 166° |
| 2026-05-07 21:29 | 42.08741 | 11.72398 | 10667 ft | 257 kts | 166° |
| 2026-05-07 21:29 | 42.07091 | 11.73311 | 10307 ft | 261 kts | 147° |
| 2026-05-07 21:29 | 42.05929 | 11.75186 | 9958 ft | 267 kts | 115° |
| 2026-05-07 21:29 | 42.05641 | 11.77626 | 9617 ft | 268 kts | 84° |
| 2026-05-07 21:30 | 42.06087 | 11.80043 | 9296 ft | 265 kts | 72° |
| 2026-05-07 21:30 | 42.06667 | 11.82395 | 8984 ft | 264 kts | 71° |
| 2026-05-07 21:30 | 42.07263 | 11.84739 | 8568 ft | 267 kts | 66° |
| 2026-05-07 21:30 | 42.08349 | 11.86732 | 8119 ft | 267 kts | 36° |
| 2026-05-07 21:31 | 42.10020 | 11.87727 | 7706 ft | 263 kts | 6° |
| 2026-05-07 21:31 | 42.11821 | 11.87615 | 7306 ft | 259 kts | 343° |
| 2026-05-07 21:31 | 42.13541 | 11.86902 | 6903 ft | 259 kts | 340° |
| 2026-05-07 21:31 | 42.15247 | 11.86146 | 6603 ft | 255 kts | 340° |
| 2026-05-07 21:32 | 42.16880 | 11.85422 | 6533 ft | 239 kts | 340° |
| 2026-05-07 21:32 | 42.18408 | 11.84755 | 6418 ft | 223 kts | 340° |
| 2026-05-07 21:32 | 42.19837 | 11.84138 | 6273 ft | 208 kts | 340° |
| 2026-05-07 21:32 | 42.21177 | 11.83562 | 6059 ft | 199 kts | 340° |
| 2026-05-07 21:33 | 42.22496 | 11.83034 | 5691 ft | 197 kts | 345° |
| 2026-05-07 21:33 | 42.23838 | 11.83086 | 5245 ft | 203 kts | 26° |
| 2026-05-07 21:33 | 42.24759 | 11.84469 | 4953 ft | 199 kts | 75° |
| 2026-05-07 21:33 | 42.24768 | 11.86291 | 4652 ft | 194 kts | 105° |
| 2026-05-07 21:34 | 42.24146 | 11.87876 | 4334 ft | 192 kts | 132° |
| 2026-05-07 21:34 | 42.23219 | 11.89160 | 4140 ft | 191 kts | 136° |
| 2026-05-07 21:34 | 42.22250 | 11.90414 | 4089 ft | 191 kts | 136° |
| 2026-05-07 21:34 | 42.21274 | 11.91675 | 4092 ft | 207 kts | 136° |
| 2026-05-07 21:35 | 42.20180 | 11.93088 | 4076 ft | 217 kts | 136° |
| 2026-05-07 21:35 | 42.19123 | 11.94467 | 4060 ft | 212 kts | 136° |
| 2026-05-07 21:35 | 42.18079 | 11.95833 | 4080 ft | 207 kts | 136° |
| 2026-05-07 21:35 | 42.17043 | 11.97190 | 4109 ft | 212 kts | 136° |
| 2026-05-07 21:36 | 42.15966 | 11.98603 | 4114 ft | 219 kts | 136° |
| 2026-05-07 21:36 | 42.14868 | 12.00042 | 4117 ft | 220 kts | 136° |
| 2026-05-07 21:36 | 42.13784 | 12.01465 | 4104 ft | 215 kts | 136° |
| 2026-05-07 21:36 | 42.12725 | 12.02854 | 4107 ft | 210 kts | 136° |
| 2026-05-07 21:37 | 42.11684 | 12.04224 | 4115 ft | 209 kts | 134° |
| 2026-05-07 21:37 | 42.10678 | 12.05678 | 4058 ft | 214 kts | 133° |
| 2026-05-07 21:37 | 42.09654 | 12.07193 | 3839 ft | 223 kts | 133° |
| 2026-05-07 21:37 | 42.08590 | 12.08758 | 3614 ft | 229 kts | 133° |
| 2026-05-07 21:38 | 42.07509 | 12.10344 | 3395 ft | 229 kts | 133° |
| 2026-05-07 21:38 | 42.06448 | 12.11896 | 3363 ft | 220 kts | 133° |
| 2026-05-07 21:38 | 42.05431 | 12.13389 | 3284 ft | 214 kts | 132° |
| 2026-05-07 21:38 | 42.04440 | 12.14842 | 3149 ft | 205 kts | 132° |
| 2026-05-07 21:39 | 42.03512 | 12.16204 | 3141 ft | 191 kts | 133° |
| 2026-05-07 21:39 | 42.02622 | 12.17507 | 3168 ft | 188 kts | 133° |
| 2026-05-07 21:39 | 42.01707 | 12.18773 | 3058 ft | 190 kts | 143° |
| 2026-05-07 21:39 | 42.00492 | 12.19426 | 3075 ft | 189 kts | 165° |
| 2026-05-07 21:40 | 41.99220 | 12.19968 | 2963 ft | 194 kts | 161° |
| 2026-05-07 21:40 | 41.97917 | 12.20546 | 2713 ft | 195 kts | 162° |
| 2026-05-07 21:40 | 41.96671 | 12.21078 | 2461 ft | 181 kts | 162° |
| 2026-05-07 21:40 | 41.95881 | 12.21410 | 2295 ft | 172 kts | 161° |
| 2026-05-07 21:41 | 41.94776 | 12.21874 | 2099 ft | 161 kts | 161° |
| 2026-05-07 21:41 | 41.93732 | 12.22313 | 1870 ft | 156 kts | 161° |
| 2026-05-07 21:41 | 41.92723 | 12.22736 | 1665 ft | 153 kts | 161° |
| 2026-05-07 21:41 | 41.91713 | 12.23160 | 1475 ft | 153 kts | 162° |
| 2026-05-07 21:42 | 41.90690 | 12.23589 | 1268 ft | 155 kts | 162° |
| 2026-05-07 21:42 | 41.89665 | 12.24020 | 1069 ft | 154 kts | 163° |
| 2026-05-07 21:42 | 41.88640 | 12.24447 | 861 ft | 155 kts | 163° |
| 2026-05-07 21:42 | 41.87610 | 12.24883 | 654 ft | 156 kts | 163° |
| 2026-05-07 21:43 | 41.86567 | 12.25324 | 460 ft | 157 kts | 162° |
| 2026-05-07 21:43 | 41.85519 | 12.25770 | 262 ft | 158 kts | 163° |
| 2026-05-07 21:43 | 41.84469 | 12.26209 | 62 ft | 158 kts | 163° |
| 2026-05-07 21:43 | 41.83463 | 12.26628 | 11 ft | 135 kts | 162° |
| 2026-05-07 21:44 | 41.82726 | 12.26936 | 18 ft | 80 kts | 162° |
| 2026-05-07 21:44 | 41.82368 | 12.27085 | 10 ft | 36 kts | 163° |
| 2026-05-07 21:44 | 41.82127 | 12.27137 | 8 ft | 34 kts | 180° |
| 2026-05-07 21:44 | 41.81900 | 12.27089 | 11 ft | 30 kts | 193° |
| 2026-05-07 21:45 | 41.81730 | 12.27051 | 15 ft | 22 kts | 180° |
| 2026-05-07 21:45 | 41.81580 | 12.27090 | 16 ft | 22 kts | 163° |
| 2026-05-07 21:45 | 41.81438 | 12.27149 | 18 ft | 21 kts | 162° |
| 2026-05-07 21:45 | 41.81290 | 12.27212 | 13 ft | 24 kts | 162° |
| 2026-05-07 21:46 | 41.81131 | 12.27279 | 12 ft | 23 kts | 162° |
| 2026-05-07 21:46 | 41.80979 | 12.27342 | 12 ft | 23 kts | 167° |
| 2026-05-07 21:46 | 41.80825 | 12.27332 | 12 ft | 22 kts | 189° |
| 2026-05-07 21:46 | 41.80684 | 12.27273 | 14 ft | 21 kts | 221° |
| 2026-05-07 21:47 | 41.80622 | 12.27099 | 12 ft | 21 kts | 251° |
| 2026-05-07 21:47 | 41.80573 | 12.26921 | 15 ft | 20 kts | 249° |
| 2026-05-07 21:47 | 41.80525 | 12.26749 | 13 ft | 19 kts | 250° |
| 2026-05-07 21:47 | 41.80479 | 12.26582 | 13 ft | 19 kts | 250° |
| 2026-05-07 21:48 | 41.80437 | 12.26426 | 13 ft | 14 kts | 248° |
| 2026-05-07 21:48 | 41.80355 | 12.26370 | 14 ft | 16 kts | 169° |
| 2026-05-07 21:48 | 41.80235 | 12.26409 | 15 ft | 19 kts | 184° |
| 2026-05-07 21:48 | 41.80116 | 12.26345 | 16 ft | 18 kts | 206° |
| 2026-05-07 21:49 | 41.80004 | 12.26274 | 18 ft | 18 kts | 204° |
| 2026-05-07 21:49 | 41.79894 | 12.26211 | 18 ft | 17 kts | 204° |
| 2026-05-07 21:49 | 41.79793 | 12.26146 | 18 ft | 13 kts | 213° |
| 2026-05-07 21:49 | 41.79773 | 12.26047 | 18 ft | 10 kts | 290° |
| 2026-05-07 21:50 | 41.79798 | 12.25976 | 18 ft | 8 kts | 296° |
| 2026-05-07 21:50 | 41.79823 | 12.25906 | 18 ft | 10 kts | 292° |
| 2026-05-07 21:50 | 41.79806 | 12.25828 | 18 ft | 8 kts | 217° |
| 2026-05-07 21:50 | 41.79764 | 12.25809 | 18 ft | 6 kts | 159° |
| 2026-05-07 21:51 | 41.79742 | 12.25849 | 18 ft | 3 kts | 118° |
| 2026-05-07 21:51 | 41.79740 | 12.25856 | 18 ft | 0 kts | 118° |